Time;durP1;ratioP1;P1;durP2;ratioP2;P2;SDS_P1;SDS_P2;PMS_P1;PMS_P2;Temp;Humidity;BMP_temperature;BMP_pressure;BME280_temperature;BME280_humidity;BME280_pressure;Samples;Min_cycle;Max_cycle;Signal;HPM_P1;HPM_P2
2022/08/18 00:01:17;;;;;;;0.20;0.20;;;19.50;99.90;;;;;;5097040;28;20345;-87
2022/08/18 00:03:45;;;;;;;0.17;0.17;;;19.40;99.90;;;;;;5078115;28;20090;-87
2022/08/18 00:06:12;;;;;;;0.10;0.10;;;19.40;99.90;;;;;;5096728;28;20044;-86
2022/08/18 00:08:37;;;;;;;0.20;0.20;;;19.40;99.90;;;;;;5078634;28;20380;-87
2022/08/18 00:11:04;;;;;;;0.20;0.20;;;19.40;99.90;;;;;;5095479;28;20051;-86
2022/08/18 00:13:30;;;;;;;0.20;0.20;;;19.40;99.90;;;;;;5096531;28;20036;-86
2022/08/18 00:15:55;;;;;;;0.10;0.10;;;19.40;99.90;;;;;;5097000;28;20119;-86
2022/08/18 00:18:21;;;;;;;0.20;0.20;;;19.30;99.90;;;;;;5095785;28;20468;-86
2022/08/18 00:20:47;;;;;;;0.20;0.20;;;19.30;99.90;;;;;;5104683;28;20040;-86
2022/08/18 00:23:13;;;;;;;0.10;0.10;;;19.30;99.90;;;;;;5119690;28;20031;-85
2022/08/18 00:25:41;;;;;;;0.13;0.13;;;19.30;99.90;;;;;;5105276;28;20127;-86
2022/08/18 00:28:07;;;;;;;0.10;0.10;;;19.20;99.90;;;;;;5096843;28;20044;-86
2022/08/18 00:30:33;;;;;;;0.20;0.20;;;19.20;99.90;;;;;;5096058;28;20051;-86
2022/08/18 00:32:59;;;;;;;0.20;0.20;;;19.40;99.90;;;;;;5077318;28;20048;-85
2022/08/18 00:35:37;;;;;;;0.20;0.20;;;19.20;99.90;;;;;;5095944;28;20048;-86
2022/08/18 00:38:06;;;;;;;0.20;0.20;;;19.20;99.90;;;;;;5091654;28;20080;-86
2022/08/18 00:40:43;;;;;;;0.20;0.20;;;19.10;99.90;;;;;;5096301;28;20395;-85
2022/08/18 00:43:16;;;;;;;0.20;0.20;;;19.10;99.90;;;;;;5116329;28;20040;-86
2022/08/18 00:45:42;;;;;;;0.20;0.20;;;19.20;99.90;;;;;;5098143;28;20044;-85
2022/08/18 00:48:10;;;;;;;0.20;0.20;;;19.20;99.90;;;;;;5115919;28;20110;-85
2022/08/18 00:50:56;;;;;;;0.20;0.20;;;19.10;99.90;;;;;;5097956;28;20067;-85
2022/08/18 00:53:28;;;;;;;0.20;0.20;;;19.10;99.90;;;;;;5096340;28;20100;-85
2022/08/18 00:55:57;;;;;;;0.10;0.10;;;19.10;99.90;;;;;;5097206;28;20040;-85
2022/08/18 00:58:52;;;;;;;0.20;0.20;;;19.20;99.90;;;;;;5116295;28;20070;-86
2022/08/18 01:01:22;;;;;;;0.20;0.20;;;19.10;99.90;;;;;;5071008;28;20448;-86
2022/08/18 01:03:52;;;;;;;0.20;0.20;;;19.10;99.90;;;;;;5097657;28;20051;-85
2022/08/18 01:06:40;;;;;;;0.20;0.20;;;19.10;99.90;;;;;;5115641;28;20546;-85
2022/08/18 01:09:09;;;;;;;0.20;0.20;;;19.10;99.90;;;;;;5096664;28;20048;-85
2022/08/18 01:11:37;;;;;;;0.20;0.20;;;19.10;99.90;;;;;;5096944;28;20051;-85
2022/08/18 01:14:07;;;;;;;0.10;0.10;;;19.10;99.90;;;;;;5115389;28;20105;-84
2022/08/18 01:22:10;;;;;;;0.20;0.20;;;19.10;99.90;;;;;;5115209;28;20047;-85
2022/08/18 01:27:24;;;;;;;0.20;0.20;;;19.10;99.90;;;;;;5066842;28;20130;-85
2022/08/18 01:29:50;;;;;;;0.10;0.10;;;19.10;99.90;;;;;;5096328;28;20108;-86
2022/08/18 01:32:21;;;;;;;0.20;0.20;;;19.10;99.90;;;;;;5097304;28;20048;-86
2022/08/18 01:34:50;;;;;;;0.10;0.10;;;19.10;99.90;;;;;;5115285;28;20047;-85
2022/08/18 01:37:19;;;;;;;0.20;0.20;;;19.00;99.90;;;;;;5114798;28;20085;-86
2022/08/18 01:39:45;;;;;;;0.13;0.13;;;19.10;99.90;;;;;;5096098;28;20376;-85
2022/08/18 01:42:13;;;;;;;0.10;0.10;;;19.10;99.90;;;;;;5114749;28;20097;-86
2022/08/18 01:44:43;;;;;;;0.10;0.10;;;19.10;99.90;;;;;;5096807;28;20051;-85
2022/08/18 01:47:10;;;;;;;0.20;0.20;;;19.00;99.90;;;;;;5115520;28;20424;-85
2022/08/18 01:49:41;;;;;;;0.10;0.10;;;19.10;99.90;;;;;;5114733;28;20039;-85
2022/08/18 01:52:08;;;;;;;0.10;0.10;;;19.10;99.90;;;;;;5120574;28;20111;-85
2022/08/18 01:54:34;;;;;;;0.20;0.20;;;19.40;99.90;;;;;;5138331;28;20115;-85
2022/08/18 01:56:59;;;;;;;0.20;0.20;;;19.10;99.90;;;;;;5110146;28;20040;-85
2022/08/18 01:59:34;;;;;;;0.10;0.10;;;19.20;99.90;;;;;;5114888;28;20478;-85
2022/08/18 02:02:00;;;;;;;0.10;0.10;;;19.20;99.90;;;;;;5096975;28;20070;-85
2022/08/18 02:04:32;;;;;;;0.20;0.20;;;19.20;99.90;;;;;;5113954;28;20031;-85
2022/08/18 02:06:58;;;;;;;0.20;0.20;;;19.20;99.90;;;;;;5115175;28;20069;-85
2022/08/18 02:09:24;;;;;;;0.20;0.20;;;19.30;99.90;;;;;;5114514;28;20092;-84
2022/08/18 02:11:50;;;;;;;0.20;0.20;;;19.20;99.90;;;;;;5095598;28;20039;-85
2022/08/18 02:14:16;;;;;;;0.10;0.10;;;19.20;99.90;;;;;;5096264;28;20054;-85
2022/08/18 02:16:41;;;;;;;0.15;0.15;;;19.30;99.90;;;;;;5114707;28;20578;-85
2022/08/18 02:19:07;;;;;;;0.10;0.10;;;19.30;99.90;;;;;;5113454;28;20035;-85
2022/08/18 02:21:32;;;;;;;0.20;0.20;;;19.30;99.90;;;;;;5096022;28;20120;-85
2022/08/18 02:23:58;;;;;;;0.20;0.20;;;19.30;99.90;;;;;;5114616;28;20044;-86
2022/08/18 02:26:24;;;;;;;0.10;0.10;;;19.30;99.90;;;;;;5113240;28;20043;-86
2022/08/18 02:28:50;;;;;;;0.20;0.20;;;19.60;99.90;;;;;;5096809;28;20044;-86
2022/08/18 02:31:20;;;;;;;0.17;0.17;;;19.30;99.90;;;;;;5104943;28;20051;-86
2022/08/18 02:33:46;;;;;;;0.10;0.10;;;19.30;99.90;;;;;;5097755;28;20043;-86
2022/08/18 02:36:13;;;;;;;0.10;0.10;;;19.30;99.90;;;;;;5113344;28;20103;-85
2022/08/18 02:38:40;;;;;;;0.20;0.20;;;19.30;99.90;;;;;;5096408;28;20047;-84
2022/08/18 02:41:08;;;;;;;0.20;0.20;;;19.30;99.90;;;;;;5108585;28;20047;-83
2022/08/18 02:43:38;;;;;;;0.13;0.13;;;19.30;99.90;;;;;;5126237;28;20051;-86
2022/08/18 02:46:04;;;;;;;0.20;0.20;;;19.30;99.90;;;;;;5133136;28;20060;-86
2022/08/18 02:48:34;;;;;;;0.20;0.20;;;19.80;99.90;;;;;;5114498;28;20044;-85
2022/08/18 02:51:14;;;;;;;0.17;0.17;;;19.30;99.90;;;;;;5118616;28;20039;-85
2022/08/18 02:53:42;;;;;;;0.20;0.20;;;19.30;99.90;;;;;;5126578;28;20043;-85
2022/08/18 02:56:23;;;;;;;0.20;0.20;;;19.30;99.90;;;;;;5115751;28;20047;-85
2022/08/18 02:58:56;;;;;;;0.20;0.20;;;19.20;99.90;;;;;;5116715;28;20039;-85
2022/08/18 03:01:25;;;;;;;0.20;0.20;;;19.30;99.90;;;;;;5098095;28;20047;-85
2022/08/18 03:03:52;;;;;;;0.20;0.20;;;19.30;99.90;;;;;;5116868;28;20092;-85
2022/08/18 03:06:19;;;;;;;0.20;0.20;;;19.30;99.90;;;;;;5117064;28;20046;-84
2022/08/18 03:08:50;;;;;;;0.10;0.10;;;19.30;99.90;;;;;;5099155;28;20047;-86
2022/08/18 03:11:19;;;;;;;0.10;0.10;;;19.30;99.90;;;;;;5112895;28;20534;-86
2022/08/18 03:13:45;;;;;;;0.10;0.10;;;19.40;99.90;;;;;;5112999;28;20081;-86
2022/08/18 03:16:12;;;;;;;0.20;0.20;;;19.30;99.90;;;;;;5095509;28;20047;-86
2022/08/18 03:18:40;;;;;;;0.10;0.10;;;19.30;99.90;;;;;;5113795;28;20042;-86
2022/08/18 03:21:11;;;;;;;0.20;0.20;;;19.40;99.90;;;;;;5094620;28;20053;-85
2022/08/18 03:23:41;;;;;;;0.10;0.10;;;19.40;99.90;;;;;;5095843;28;20043;-86
2022/08/18 03:26:10;;;;;;;0.10;0.10;;;19.40;99.90;;;;;;5135906;28;20027;-85
2022/08/18 03:28:40;;;;;;;0.20;0.20;;;19.40;99.90;;;;;;5110601;28;20036;-85
2022/08/18 03:31:08;;;;;;;0.20;0.20;;;19.50;99.90;;;;;;5112503;28;20044;-85
2022/08/18 03:33:34;;;;;;;0.20;0.20;;;19.40;99.90;;;;;;5095384;28;20047;-85
2022/08/18 03:36:11;;;;;;;0.20;0.20;;;19.50;99.90;;;;;;5094285;28;20403;-85
2022/08/18 03:38:38;;;;;;;0.20;0.20;;;19.50;99.90;;;;;;5113074;28;20082;-86
2022/08/18 03:41:07;;;;;;;0.20;0.20;;;19.40;99.90;;;;;;5112723;28;20048;-86
2022/08/18 03:43:33;;;;;;;0.10;0.10;;;19.50;99.90;;;;;;5112417;28;20039;-85
2022/08/18 03:46:01;;;;;;;0.20;0.20;;;19.50;99.90;;;;;;5113349;28;20043;-85
2022/08/18 03:48:27;;;;;;;0.20;0.20;;;19.50;99.90;;;;;;5113068;28;20408;-86
2022/08/18 03:50:53;;;;;;;0.20;0.20;;;19.50;99.90;;;;;;5113096;28;20044;-86
2022/08/18 03:53:19;;;;;;;0.10;0.10;;;19.50;99.90;;;;;;5094416;28;20127;-86
2022/08/18 03:55:44;;;;;;;0.20;0.20;;;19.50;99.90;;;;;;5111791;28;20050;-85
2022/08/18 03:58:13;;;;;;;0.10;0.10;;;19.50;99.90;;;;;;5113202;28;20425;-85
2022/08/18 04:00:39;;;;;;;0.20;0.20;;;19.50;99.90;;;;;;5112984;28;20063;-85
2022/08/18 04:03:05;;;;;;;0.20;0.20;;;19.50;99.90;;;;;;5112304;28;20051;-84
2022/08/18 04:05:34;;;;;;;0.20;0.20;;;19.50;99.90;;;;;;5094230;28;20043;-84
2022/08/18 04:08:04;;;;;;;0.20;0.20;;;19.50;99.90;;;;;;5113560;28;20047;-85
2022/08/18 04:10:30;;;;;;;0.20;0.20;;;19.50;99.90;;;;;;5111229;28;20043;-84
2022/08/18 04:12:55;;;;;;;0.10;0.10;;;19.50;99.90;;;;;;5113283;28;20436;-85
2022/08/18 04:15:24;;;;;;;0.20;0.20;;;19.50;99.90;;;;;;5094592;28;20051;-84
2022/08/18 04:17:50;;;;;;;0.20;0.20;;;19.60;99.90;;;;;;5112629;28;20394;-85
2022/08/18 04:20:15;;;;;;;0.20;0.20;;;19.60;99.90;;;;;;5094258;28;20051;-84
2022/08/18 04:22:41;;;;;;;0.20;0.20;;;19.60;99.90;;;;;;5113252;28;20043;-85
2022/08/18 04:25:08;;;;;;;0.13;0.13;;;19.60;99.90;;;;;;5111101;28;20055;-84
2022/08/18 04:27:35;;;;;;;0.17;0.17;;;19.60;99.90;;;;;;5113183;28;20340;-84
2022/08/18 04:30:01;;;;;;;0.20;0.20;;;19.60;99.90;;;;;;5094472;28;20048;-85
2022/08/18 04:32:29;;;;;;;0.20;0.20;;;19.60;99.90;;;;;;5113475;28;20047;-85
2022/08/18 04:34:58;;;;;;;0.10;0.10;;;19.60;99.90;;;;;;5112928;28;20486;-85
2022/08/18 04:37:23;;;;;;;0.20;0.20;;;19.90;99.90;;;;;;5086609;28;20086;-85
2022/08/18 04:39:49;;;;;;;0.10;0.10;;;19.60;99.90;;;;;;5090674;28;20145;-84
2022/08/18 04:42:17;;;;;;;0.20;0.20;;;19.60;99.90;;;;;;5094288;28;20131;-84
2022/08/18 04:44:43;;;;;;;0.20;0.20;;;19.80;99.90;;;;;;5077704;28;20182;-85
2022/08/18 04:47:09;;;;;;;0.20;0.20;;;19.60;99.90;;;;;;5095588;28;20395;-84
2022/08/18 04:49:38;;;;;;;0.10;0.10;;;19.60;99.90;;;;;;5083805;28;20506;-85
2022/08/18 04:54:49;;;;;;;0.17;0.17;;;19.50;99.90;;;;;;5094993;28;20516;-85
2022/08/18 04:57:17;;;;;;;0.20;0.20;;;19.60;99.90;;;;;;5112267;28;20040;-85
2022/08/18 04:59:46;;;;;;;0.20;0.20;;;19.60;99.90;;;;;;5117228;28;20040;-85
2022/08/18 05:02:13;;;;;;;0.20;0.20;;;19.60;99.90;;;;;;5077976;28;20116;-85
2022/08/18 05:04:41;;;;;;;0.10;0.10;;;19.60;99.90;;;;;;5077552;28;20048;-85
2022/08/18 05:07:09;;;;;;;0.20;0.20;;;19.60;99.90;;;;;;5095190;28;20419;-85
2022/08/18 05:09:35;;;;;;;0.10;0.10;;;19.60;99.90;;;;;;5077214;28;20408;-84
2022/08/18 05:12:02;;;;;;;0.10;0.10;;;19.60;99.90;;;;;;5094743;28;20048;-85
2022/08/18 05:14:28;;;;;;;0.20;0.20;;;19.60;99.90;;;;;;5094712;28;20530;-85
2022/08/18 05:17:01;;;;;;;0.10;0.10;;;19.60;99.90;;;;;;5077317;28;20043;-85
2022/08/18 05:19:27;;;;;;;0.20;0.20;;;19.60;99.90;;;;;;5095426;28;20100;-85
2022/08/18 05:21:54;;;;;;;0.20;0.20;;;19.70;99.90;;;;;;5094968;28;20056;-84
2022/08/18 05:24:20;;;;;;;0.20;0.20;;;19.80;99.90;;;;;;5094765;28;20373;-84
2022/08/18 05:26:47;;;;;;;0.17;0.17;;;19.70;99.90;;;;;;5094532;28;20062;-85
2022/08/18 05:29:15;;;;;;;0.20;0.20;;;19.70;99.90;;;;;;5076837;28;20048;-84
2022/08/18 05:31:40;;;;;;;0.20;0.20;;;19.70;99.90;;;;;;5073258;28;20061;-84
2022/08/18 05:34:06;;;;;;;0.20;0.20;;;19.70;99.90;;;;;;5075134;28;20058;-85
2022/08/18 05:36:47;;;;;;;0.10;0.10;;;19.70;99.90;;;;;;5074388;28;20090;-84
2022/08/18 05:39:31;;;;;;;;;;;19.70;99.90;;;;;;5074772;28;20396;-84
2022/08/18 05:42:09;;;;;;;0.20;0.20;;;19.70;99.90;;;;;;5073512;28;20014;-85
2022/08/18 05:44:40;;;;;;;0.20;0.20;;;19.80;99.90;;;;;;5074818;28;20036;-84
2022/08/18 05:47:10;;;;;;;;;;;19.70;99.90;;;;;;5075294;28;20123;-84
2022/08/18 05:49:36;;;;;;;0.20;0.20;;;19.70;99.90;;;;;;5073947;28;19920;-84
2022/08/18 05:52:06;;;;;;;0.20;0.20;;;19.70;99.90;;;;;;5073344;28;20056;-84
2022/08/18 05:57:50;;;;;;;0.10;0.10;;;19.80;99.90;;;;;;5073989;28;20044;-84
2022/08/18 06:00:17;;;;;;;0.20;0.20;;;19.80;99.90;;;;;;5074373;28;20045;-84
2022/08/18 06:02:44;;;;;;;0.20;0.20;;;19.80;99.90;;;;;;5072607;28;20136;-83
2022/08/18 06:05:30;;;;;;;0.20;0.20;;;19.80;99.90;;;;;;5080207;28;20484;-84
2022/08/18 06:08:07;;;;;;;0.20;0.20;;;19.80;99.90;;;;;;5095025;28;20072;-83
2022/08/18 06:10:35;;;;;;;0.10;0.10;;;19.90;99.90;;;;;;5091925;28;20502;-85
2022/08/18 06:13:01;;;;;;;0.20;0.20;;;19.90;99.90;;;;;;5093955;28;20128;-85
2022/08/18 06:15:36;;;;;;;0.20;0.20;;;19.90;99.90;;;;;;5093924;28;20044;-84
2022/08/18 06:18:27;;;;;;;0.20;0.20;;;19.90;99.90;;;;;;5092768;28;20044;-85
2022/08/18 06:21:09;;;;;;;0.20;0.20;;;20.00;99.90;;;;;;5094226;28;20052;-84
2022/08/18 06:23:59;;;;;;;0.10;0.10;;;20.00;99.90;;;;;;5093297;28;20048;-85
2022/08/18 06:26:57;;;;;;;0.20;0.20;;;20.00;99.90;;;;;;5093852;28;20051;-85
2022/08/18 06:29:38;;;;;;;0.13;0.13;;;20.00;99.90;;;;;;5087514;28;20047;-86
2022/08/18 06:32:13;;;;;;;;;;;20.10;99.90;;;;;;5128407;28;20034;-88
2022/08/18 06:35:14;;;;;;;0.20;0.20;;;20.10;99.90;;;;;;5124486;28;19931;-86
2022/08/18 06:41:11;;;;;;;0.20;0.20;;;20.00;99.90;;;;;;5113802;28;20051;-85
2022/08/18 06:43:59;;;;;;;0.15;0.15;;;19.90;99.90;;;;;;5105529;28;20083;-88
2022/08/18 06:46:40;;;;;;;0.20;0.20;;;19.90;99.90;;;;;;5113877;28;20028;-89
2022/08/18 06:49:16;;;;;;;0.20;0.20;;;19.90;99.90;;;;;;5114413;28;20035;-86
2022/08/18 06:51:47;;;;;;;0.20;0.20;;;19.90;99.90;;;;;;5113239;28;20036;-85
2022/08/18 06:54:18;;;;;;;0.10;0.10;;;19.80;99.90;;;;;;5113385;28;20051;-85
2022/08/18 06:56:50;;;;;;;0.20;0.20;;;19.70;99.90;;;;;;5113467;28;20131;-87
2022/08/18 06:59:26;;;;;;;0.20;0.20;;;19.80;99.90;;;;;;5095215;28;20391;-87
2022/08/18 07:02:24;;;;;;;0.20;0.20;;;19.80;99.90;;;;;;5114251;28;20053;-87
2022/08/18 07:05:00;;;;;;;0.10;0.10;;;19.80;99.90;;;;;;5095585;28;20096;-88
2022/08/18 07:07:38;;;;;;;0.10;0.10;;;19.80;99.90;;;;;;5094900;28;20067;-86
2022/08/18 07:10:12;;;;;;;0.20;0.20;;;19.70;99.90;;;;;;5112938;28;20154;-86
2022/08/18 07:12:38;;;;;;;0.10;0.10;;;19.70;99.90;;;;;;5095557;28;20130;-85
2022/08/18 07:15:06;;;;;;;0.15;0.15;;;19.60;99.90;;;;;;5095593;28;20122;-86
2022/08/18 07:17:42;;;;;;;0.17;0.17;;;19.60;99.90;;;;;;5095416;28;20127;-87
2022/08/18 07:20:19;;;;;;;0.10;0.10;;;19.60;99.90;;;;;;5094989;28;20048;-90
2022/08/18 07:22:59;;;;;;;0.10;0.10;;;19.60;99.90;;;;;;5095782;28;20067;-86
2022/08/18 07:25:39;;;;;;;0.20;0.20;;;19.60;99.90;;;;;;5096256;28;20090;-86
2022/08/18 07:28:06;;;;;;;0.20;0.20;;;19.60;99.90;;;;;;5113256;28;20073;-89
2022/08/18 07:30:36;;;;;;;0.13;0.13;;;19.60;99.90;;;;;;5095090;28;20043;-87
2022/08/18 07:33:17;;;;;;;0.20;0.20;;;19.50;99.90;;;;;;5113567;28;20490;-86
2022/08/18 07:35:55;;;;;;;0.20;0.20;;;19.50;99.90;;;;;;5094407;28;20146;-85
2022/08/18 07:39:20;;;;;;;0.20;0.20;;;19.50;99.90;;;;;;5094789;28;20117;-87
2022/08/18 07:42:02;;;;;;;0.20;0.20;;;19.50;99.90;;;;;;5048498;28;20053;-87
2022/08/18 07:44:42;;;;;;;0.10;0.10;;;19.50;99.90;;;;;;5033851;28;20049;-87
2022/08/18 07:47:21;;;;;;;0.20;0.20;;;19.50;99.90;;;;;;5102163;28;20103;-86
2022/08/18 07:49:47;;;;;;;0.20;0.20;;;19.50;99.90;;;;;;5112180;28;20043;-85
2022/08/18 07:52:17;;;;;;;0.20;0.20;;;19.60;99.90;;;;;;5095523;28;20044;-88
2022/08/18 07:55:08;;;;;;;0.20;0.20;;;19.60;99.90;;;;;;5094802;28;20043;-87
2022/08/18 07:57:49;;;;;;;0.20;0.20;;;19.60;99.90;;;;;;5095392;28;20093;-88
2022/08/18 08:00:39;;;;;;;0.20;0.20;;;19.60;99.90;;;;;;5119947;28;20023;-87
2022/08/18 08:03:24;;;;;;;0.20;0.20;;;19.60;99.90;;;;;;5118164;28;20040;-86
2022/08/18 08:06:14;;;;;;;0.10;0.10;;;19.50;99.90;;;;;;5098824;28;20040;-85
2022/08/18 08:08:55;;;;;;;0.20;0.20;;;19.50;99.90;;;;;;5113170;28;20506;-88
2022/08/18 08:11:54;;;;;;;0.20;0.20;;;19.50;99.90;;;;;;5094180;28;20399;-85
2022/08/18 08:14:40;;;;;;;0.20;0.20;;;19.60;99.90;;;;;;5062023;28;20136;-85
2022/08/18 08:17:23;;;;;;;0.20;0.20;;;19.60;99.90;;;;;;5103940;28;20050;-84
2022/08/18 08:20:18;;;;;;;0.20;0.20;;;19.60;99.90;;;;;;5117247;28;20414;-84
2022/08/18 08:23:21;;;;;;;0.20;0.20;;;19.60;99.90;;;;;;5117190;28;20036;-85
2022/08/18 08:26:26;;;;;;;0.10;0.10;;;19.60;99.90;;;;;;5108468;28;20101;-85
2022/08/18 08:29:28;;;;;;;0.20;0.20;;;19.60;99.90;;;;;;5067967;28;20056;-84
2022/08/18 08:32:08;;;;;;;0.20;0.20;;;19.60;99.90;;;;;;5097738;28;20052;-86
2022/08/18 08:34:48;;;;;;;0.20;0.20;;;19.60;99.90;;;;;;5098500;28;20425;-86
2022/08/18 08:37:56;;;;;;;0.20;0.20;;;19.60;99.90;;;;;;5097903;28;20483;-84
2022/08/18 08:40:27;;;;;;;0.20;0.20;;;19.70;99.90;;;;;;5097257;28;20055;-86
2022/08/18 08:43:09;;;;;;;0.20;0.20;;;19.70;99.90;;;;;;5116726;28;20043;-85
2022/08/18 08:45:44;;;;;;;0.10;0.10;;;19.70;99.90;;;;;;5115768;28;20513;-84
2022/08/18 08:48:27;;;;;;;0.10;0.10;;;19.70;99.90;;;;;;5098362;28;20082;-85
2022/08/18 08:51:35;;;;;;;0.10;0.10;;;19.80;99.90;;;;;;5116820;28;20119;-84
2022/08/18 08:54:22;;;;;;;0.10;0.10;;;19.80;99.90;;;;;;5116221;28;20460;-85
2022/08/18 08:56:51;;;;;;;0.20;0.20;;;19.90;99.90;;;;;;5115547;28;20402;-86
2022/08/18 08:59:23;;;;;;;0.20;0.20;;;19.90;99.90;;;;;;5115914;28;20066;-85
2022/08/18 09:02:07;;;;;;;0.13;0.13;;;19.90;99.90;;;;;;5097821;28;20043;-85
2022/08/18 09:04:55;;;;;;;0.20;0.20;;;20.00;99.90;;;;;;5115864;28;20376;-86
2022/08/18 09:07:46;;;;;;;0.10;0.10;;;20.00;99.90;;;;;;5097407;28;20069;-87
2022/08/18 09:10:33;;;;;;;0.20;0.20;;;20.00;99.90;;;;;;5115066;28;20380;-87
2022/08/18 09:13:25;;;;;;;0.10;0.10;;;20.10;99.90;;;;;;5097411;28;20048;-87
2022/08/18 09:16:33;;;;;;;0.17;0.17;;;20.10;99.90;;;;;;5116115;28;20113;-87
2022/08/18 09:19:34;;;;;;;0.20;0.20;;;20.20;99.90;;;;;;5086646;28;20097;-87
2022/08/18 09:22:09;;;;;;;0.20;0.20;;;20.20;99.90;;;;;;5115893;28;20051;-87
2022/08/18 09:24:49;;;;;;;0.17;0.17;;;20.20;99.90;;;;;;5115477;28;20039;-86
2022/08/18 09:27:40;;;;;;;0.20;0.20;;;20.20;99.90;;;;;;5083940;28;20430;-88
2022/08/18 09:30:27;;;;;;;0.20;0.20;;;20.20;99.90;;;;;;5095649;28;20040;-88
2022/08/18 09:33:18;;;;;;;0.20;0.20;;;20.20;99.90;;;;;;5106617;28;20051;-87
2022/08/18 09:36:04;;;;;;;0.20;0.20;;;20.10;99.90;;;;;;5101387;28;20031;-87
2022/08/18 09:41:31;;;;;;;0.17;0.17;;;20.20;99.90;;;;;;5093918;28;20056;-87
2022/08/18 09:44:10;;;;;;;0.20;0.20;;;20.20;99.90;;;;;;5095374;28;20076;-87
2022/08/18 09:46:42;;;;;;;0.10;0.10;;;20.30;99.90;;;;;;5076952;28;20131;-86
2022/08/18 09:49:26;;;;;;;0.10;0.10;;;20.30;99.90;;;;;;5076435;28;20048;-86
2022/08/18 09:51:55;;;;;;;0.10;0.10;;;20.40;99.90;;;;;;5094952;28;20127;-86
2022/08/18 09:54:32;;;;;;;0.20;0.20;;;20.50;99.90;;;;;;5094797;28;20047;-87
2022/08/18 09:57:24;;;;;;;0.20;0.20;;;20.50;99.90;;;;;;5094664;28;20075;-86
2022/08/18 09:59:56;;;;;;;0.20;0.20;;;20.50;99.90;;;;;;5105451;28;20044;-87
2022/08/18 10:02:26;;;;;;;0.20;0.20;;;20.60;99.90;;;;;;5076026;28;20040;-86
2022/08/18 10:05:14;;;;;;;0.13;0.13;;;20.60;99.90;;;;;;5099164;28;20043;-85
2022/08/18 10:08:15;;;;;;;0.20;0.20;;;20.70;99.90;;;;;;5114989;28;20108;-87
2022/08/18 10:10:53;;;;;;;0.20;0.20;;;20.80;99.90;;;;;;5084555;28;20043;-88
2022/08/18 10:13:56;;;;;;;0.20;0.20;;;20.90;99.90;;;;;;5114822;28;20051;-87
2022/08/18 10:16:27;;;;;;;0.20;0.20;;;20.90;99.90;;;;;;5095515;28;20100;-86
2022/08/18 10:19:07;;;;;;;0.20;0.20;;;20.90;99.90;;;;;;5096507;28;20090;-85
2022/08/18 10:21:57;;;;;;;0.20;0.20;;;20.90;99.90;;;;;;5114246;28;20483;-86
2022/08/18 10:24:34;;;;;;;0.10;0.10;;;20.90;99.90;;;;;;5095283;28;20416;-86
2022/08/18 10:27:12;;;;;;;0.20;0.20;;;20.90;99.90;;;;;;5114124;28;20043;-86
2022/08/18 10:29:46;;;;;;;0.20;0.20;;;20.80;99.90;;;;;;5095705;28;20122;-87
2022/08/18 10:32:12;;;;;;;0.10;0.10;;;20.80;99.90;;;;;;5096474;28;20091;-86
2022/08/18 10:34:54;;;;;;;0.20;0.20;;;20.80;99.90;;;;;;5114314;28;20533;-86
2022/08/18 10:37:37;;;;;;;0.20;0.20;;;20.80;99.90;;;;;;5106305;28;20090;-85
2022/08/18 10:40:18;;;;;;;0.20;0.20;;;20.80;99.90;;;;;;5092411;28;20150;-85
2022/08/18 10:42:50;;;;;;;0.20;0.20;;;20.90;99.90;;;;;;5093975;28;20083;-86
2022/08/18 10:45:44;;;;;;;0.20;0.20;;;20.90;99.90;;;;;;5074706;28;20130;-86
2022/08/18 10:48:28;;;;;;;0.20;0.20;;;20.90;99.90;;;;;;5093808;28;20123;-87
2022/08/18 10:51:12;;;;;;;0.10;0.10;;;20.90;99.90;;;;;;5093149;28;20048;-85
2022/08/18 10:53:53;;;;;;;0.20;0.20;;;20.90;99.90;;;;;;5075501;28;20055;-85
2022/08/18 10:56:44;;;;;;;0.20;0.20;;;20.90;99.90;;;;;;5074897;28;20051;-86
2022/08/18 10:59:48;;;;;;;0.20;0.20;;;20.80;99.90;;;;;;5093367;28;20048;-85
2022/08/18 11:02:34;;;;;;;0.15;0.15;;;20.80;99.90;;;;;;5094189;28;20453;-84
2022/08/18 11:05:05;;;;;;;0.17;0.17;;;20.80;99.90;;;;;;5088573;28;20031;-85
2022/08/18 11:07:31;;;;;;;0.20;0.20;;;20.80;99.90;;;;;;5117157;28;20122;-85
2022/08/18 11:09:58;;;;;;;0.20;0.20;;;20.80;99.90;;;;;;5096769;28;20093;-86
2022/08/18 11:13:05;;;;;;;0.20;0.20;;;20.80;99.90;;;;;;5074875;28;20486;-85
2022/08/18 11:15:57;;;;;;;0.20;0.20;;;20.70;99.90;;;;;;5092314;28;20048;-85
2022/08/18 11:18:37;;;;;;;0.20;0.20;;;20.70;99.90;;;;;;5075616;28;20056;-86
2022/08/18 11:21:23;;;;;;;0.20;0.20;;;20.80;99.90;;;;;;5074949;28;20044;-86
2022/08/18 11:24:11;;;;;;;0.20;0.20;;;20.80;99.90;;;;;;5075051;28;20135;-86
2022/08/18 11:26:50;;;;;;;0.20;0.20;;;20.80;99.90;;;;;;5074467;28;20403;-86
2022/08/18 11:29:31;;;;;;;0.20;0.20;;;20.80;99.90;;;;;;5075395;28;20052;-88
2022/08/18 11:32:18;;;;;;;0.20;0.20;;;20.80;99.90;;;;;;5075048;28;20109;-85
2022/08/18 11:34:47;;;;;;;0.20;0.20;;;20.80;99.90;;;;;;5092703;28;20129;-88
2022/08/18 11:37:22;;;;;;;0.15;0.15;;;20.80;99.90;;;;;;5093435;28;20036;-86
2022/08/18 11:39:50;;;;;;;0.20;0.20;;;20.80;99.90;;;;;;5092972;28;20051;-87
2022/08/18 11:42:18;;;;;;;0.20;0.20;;;20.80;99.90;;;;;;5083552;28;20051;-88
2022/08/18 11:44:45;;;;;;;0.20;0.20;;;20.90;99.90;;;;;;5093450;28;20076;-87
2022/08/18 11:47:19;;;;;;;0.20;0.20;;;21.00;99.90;;;;;;5074273;28;20127;-86
2022/08/18 11:50:07;;;;;;;0.17;0.17;;;21.10;99.90;;;;;;5093199;28;20048;-86
2022/08/18 11:52:50;;;;;;;0.20;0.20;;;21.20;99.90;;;;;;5077759;28;20040;-86
2022/08/18 11:55:34;;;;;;;0.20;0.20;;;21.50;99.90;;;;;;5096304;28;20044;-87
2022/08/18 11:58:01;;;;;;;0.20;0.20;;;21.70;99.90;;;;;;5079680;28;20077;-86
2022/08/18 12:00:40;;;;;;;0.20;0.20;;;21.90;99.90;;;;;;5097468;28;20070;-86
2022/08/18 12:03:36;;;;;;;0.20;0.20;;;22.10;99.90;;;;;;5098206;28;20274;-86
2022/08/18 12:06:24;;;;;;;0.20;0.20;;;22.20;99.90;;;;;;5113813;28;20119;-88
2022/08/18 12:09:01;;;;;;;0.20;0.20;;;22.30;99.90;;;;;;5132731;28;20047;-87
2022/08/18 12:11:42;;;;;;;0.20;0.20;;;22.30;99.90;;;;;;5132753;28;20016;-87
2022/08/18 12:14:15;;;;;;;0.20;0.20;;;22.30;99.90;;;;;;5107890;28;20069;-87
2022/08/18 12:16:42;;;;;;;0.20;0.20;;;22.20;99.90;;;;;;5119177;28;20040;-87
2022/08/18 12:19:13;;;;;;;0.13;0.13;;;22.20;99.90;;;;;;5101831;28;20043;-86
2022/08/18 12:21:44;;;;;;;0.20;0.20;;;22.20;99.90;;;;;;5138234;28;20054;-90
2022/08/18 12:24:30;;;;;;;;;;;22.20;99.90;;;;;;5114331;28;20075;-87
2022/08/18 12:26:57;;;;;;;0.20;0.20;;;22.10;99.90;;;;;;5117322;28;19916;-87
2022/08/18 12:29:24;;;;;;;0.20;0.20;;;22.00;99.90;;;;;;5138099;28;20020;-83
2022/08/18 12:31:52;;;;;;;0.20;0.20;;;22.00;99.90;;;;;;5138308;28;20078;-86
2022/08/18 12:34:25;;;;;;;0.20;0.20;;;22.00;99.90;;;;;;5137263;28;20047;-87
2022/08/18 12:36:53;;;;;;;0.20;0.20;;;21.90;99.90;;;;;;5129998;28;20049;-85
2022/08/18 12:39:18;;;;;;;0.20;0.20;;;21.80;99.90;;;;;;5103445;28;20083;-85
2022/08/18 12:41:44;;;;;;;0.20;0.20;;;21.80;99.90;;;;;;5089130;28;20048;-85
2022/08/18 12:44:10;;;;;;;0.20;0.20;;;21.90;99.90;;;;;;5083156;28;20037;-86
2022/08/18 12:46:36;;;;;;;0.20;0.20;;;22.00;99.90;;;;;;5081934;28;20048;-85
2022/08/18 12:49:03;;;;;;;0.20;0.20;;;22.10;99.90;;;;;;5079732;28;20048;-85
2022/08/18 12:51:29;;;;;;;0.20;0.20;;;22.10;99.90;;;;;;5095870;28;20054;-85
2022/08/18 12:53:55;;;;;;;0.20;0.20;;;22.40;99.90;;;;;;5095934;28;20383;-85
2022/08/18 12:56:31;;;;;;;0.20;0.20;;;22.40;99.90;;;;;;5077258;28;20044;-85
2022/08/18 12:58:59;;;;;;;0.20;0.20;;;22.50;99.90;;;;;;5077944;28;20036;-86
2022/08/18 13:01:25;;;;;;;0.20;0.20;;;22.50;99.90;;;;;;5095782;28;20047;-87
2022/08/18 13:03:54;;;;;;;0.20;0.20;;;22.50;99.90;;;;;;5077302;28;20044;-84
2022/08/18 13:06:21;;;;;;;0.20;0.20;;;22.50;99.90;;;;;;5077232;28;20098;-86
2022/08/18 13:08:49;;;;;;;0.20;0.20;;;22.50;99.90;;;;;;5095906;28;20044;-86
2022/08/18 13:11:18;;;;;;;0.20;0.20;;;22.60;99.90;;;;;;5095399;28;20092;-85
2022/08/18 13:13:49;;;;;;;0.30;0.30;;;22.60;99.90;;;;;;5095429;28;20637;-86
2022/08/18 13:16:15;;;;;;;0.20;0.20;;;22.70;99.90;;;;;;5095607;28;20495;-86
2022/08/18 13:18:40;;;;;;;0.20;0.20;;;22.80;99.90;;;;;;5095330;28;20055;-86
2022/08/18 13:21:09;;;;;;;0.20;0.20;;;23.00;99.90;;;;;;5095648;28;20040;-86
2022/08/18 13:23:35;;;;;;;0.20;0.20;;;23.00;99.90;;;;;;5076992;28;20472;-87
2022/08/18 13:26:01;;;;;;;0.20;0.20;;;23.00;99.90;;;;;;5107318;28;20220;-89
2022/08/18 13:28:29;;;;;;;0.20;0.20;;;23.00;99.90;;;;;;5116549;28;20173;-87
2022/08/18 13:30:55;;;;;;;0.20;0.20;;;23.10;99.90;;;;;;5116600;28;20122;-89
2022/08/18 13:33:20;;;;;;;0.10;0.10;;;23.00;99.90;;;;;;5115878;28;20181;-90
2022/08/18 13:35:47;;;;;;;0.20;0.20;;;23.00;99.90;;;;;;5115769;28;20483;-87
2022/08/18 13:38:18;;;;;;;0.20;0.20;;;23.00;99.90;;;;;;5097377;28;20046;-86
2022/08/18 13:40:47;;;;;;;0.20;0.20;;;23.00;99.90;;;;;;5096166;28;20051;-87
2022/08/18 13:43:14;;;;;;;0.20;0.20;;;23.10;99.90;;;;;;5116204;28;20081;-84
2022/08/18 13:45:43;;;;;;;0.20;0.20;;;23.20;99.90;;;;;;5097863;28;20048;-86